Time;durP1;ratioP1;P1;durP2;ratioP2;P2;SDS_P1;SDS_P2;PMS_P1;PMS_P2;Temp;Humidity;BMP_temperature;BMP_pressure;BME280_temperature;BME280_humidity;BME280_pressure;Samples;Min_cycle;Max_cycle;Signal;HPM_P1;HPM_P2
2024/01/15 00:02:45;;;;;;;25.33;9.65;;;8.10;60.30;;;;;;6264723;28;20120;-75
2024/01/15 00:05:46;;;;;;;25.88;10.45;;;8.10;60.20;;;;;;6243655;28;20033;-74
2024/01/15 00:08:47;;;;;;;22.33;9.10;;;8.10;60.10;;;;;;6253528;28;20489;-76
2024/01/15 00:11:48;;;;;;;22.95;9.52;;;8.10;60.10;;;;;;6259116;28;20035;-74
2024/01/15 00:14:48;;;;;;;27.65;10.45;;;8.10;60.10;;;;;;6265233;28;20108;-72
2024/01/15 00:17:49;;;;;;;19.63;8.15;;;8.10;60.00;;;;;;6249865;28;20234;-75
2024/01/15 00:20:51;;;;;;;27.17;10.63;;;8.20;60.00;;;;;;6284724;28;20468;-75
2024/01/15 00:23:54;;;;;;;27.25;10.13;;;8.30;59.80;;;;;;6251619;28;20104;-75
2024/01/15 00:26:55;;;;;;;18.83;8.32;;;8.20;59.60;;;;;;6246692;28;20025;-71
2024/01/15 00:29:56;;;;;;;29.85;10.18;;;8.20;59.60;;;;;;6246785;28;20492;-73
2024/01/15 00:32:57;;;;;;;23.90;10.23;;;8.20;59.60;;;;;;6249409;28;20044;-75
2024/01/15 00:35:59;;;;;;;30.08;11.25;;;8.10;59.70;;;;;;6245375;28;20021;-74
2024/01/15 00:39:03;;;;;;;26.63;10.10;;;8.20;59.80;;;;;;6246104;28;20127;-75
2024/01/15 00:42:05;;;;;;;27.20;11.52;;;8.30;59.70;;;;;;6261354;28;20017;-74
2024/01/15 00:45:07;;;;;;;21.75;9.82;;;8.30;59.60;;;;;;6245450;28;20109;-74
2024/01/15 00:48:08;;;;;;;20.05;8.73;;;8.30;59.60;;;;;;6254941;28;20025;-74
2024/01/15 00:51:09;;;;;;;22.88;11.07;;;8.40;59.70;;;;;;6243507;28;20385;-74
2024/01/15 00:54:10;;;;;;;26.48;9.93;;;8.30;59.60;;;;;;6243748;28;20029;-74
2024/01/15 00:57:10;;;;;;;19.58;9.32;;;8.30;59.60;;;;;;6251324;28;20017;-74
2024/01/15 01:00:12;;;;;;;24.17;11.73;;;8.30;59.60;;;;;;6234476;28;20156;-72
2024/01/15 01:03:13;;;;;;;23.00;10.23;;;8.30;59.70;;;;;;6255942;28;20426;-72
2024/01/15 01:06:14;;;;;;;35.22;10.60;;;8.30;59.70;;;;;;6246617;28;20045;-74
2024/01/15 01:09:15;;;;;;;26.45;11.07;;;8.30;59.80;;;;;;6248391;28;20082;-75
2024/01/15 01:12:16;;;;;;;29.88;9.00;;;8.20;59.80;;;;;;6223566;28;20147;-75
2024/01/15 01:15:17;;;;;;;23.17;9.38;;;8.20;60.00;;;;;;6253822;28;20037;-75
2024/01/15 01:18:19;;;;;;;19.48;8.15;;;8.20;60.00;;;;;;6247788;28;20547;-74
2024/01/15 01:21:21;;;;;;;28.10;11.15;;;8.30;60.10;;;;;;6246647;28;20095;-74
2024/01/15 01:24:22;;;;;;;25.25;12.18;;;8.30;60.20;;;;;;6245568;28;20035;-74
2024/01/15 01:27:23;;;;;;;22.00;9.93;;;8.30;60.20;;;;;;6243383;28;20491;-75
2024/01/15 01:30:25;;;;;;;26.88;10.57;;;8.30;60.10;;;;;;6239787;28;20033;-73
2024/01/15 01:33:27;;;;;;;21.75;10.43;;;8.30;60.10;;;;;;6245075;28;20028;-73
2024/01/15 01:36:28;;;;;;;20.38;10.20;;;8.30;60.10;;;;;;6246801;28;20054;-75
2024/01/15 01:39:30;;;;;;;24.95;10.55;;;8.30;60.20;;;;;;6228418;28;20370;-74
2024/01/15 01:42:31;;;;;;;22.65;10.90;;;8.30;60.30;;;;;;6247196;28;20021;-76
2024/01/15 01:45:32;;;;;;;28.02;10.40;;;8.30;60.20;;;;;;6248616;28;20024;-74
2024/01/15 01:48:33;;;;;;;28.95;10.98;;;8.20;60.20;;;;;;6243045;28;20438;-74
2024/01/15 01:51:37;;;;;;;29.77;11.55;;;8.20;60.40;;;;;;6247438;28;20017;-74
2024/01/15 01:54:40;;;;;;;27.55;11.80;;;8.20;60.60;;;;;;6247976;28;20112;-73
2024/01/15 01:57:42;;;;;;;24.77;9.13;;;8.20;60.70;;;;;;6252314;28;20013;-74
2024/01/15 02:00:44;;;;;;;24.33;9.95;;;8.20;60.70;;;;;;6248306;28;20211;-73
2024/01/15 02:03:45;;;;;;;23.40;10.18;;;8.10;60.60;;;;;;6249350;28;20027;-74
2024/01/15 02:06:46;;;;;;;20.70;8.63;;;8.00;60.80;;;;;;6251054;28;20070;-73
2024/01/15 02:09:47;;;;;;;24.70;10.07;;;8.00;61.00;;;;;;6284851;28;20026;-75
2024/01/15 02:12:49;;;;;;;27.35;11.38;;;8.00;61.20;;;;;;6269722;28;20104;-72
2024/01/15 02:15:51;;;;;;;26.20;10.48;;;8.10;61.20;;;;;;6237870;28;20136;-73
2024/01/15 02:18:52;;;;;;;35.45;11.43;;;8.10;61.10;;;;;;6237255;28;20111;-73
2024/01/15 02:21:53;;;;;;;24.23;9.90;;;8.10;61.00;;;;;;6258096;28;20485;-73
2024/01/15 02:24:55;;;;;;;21.05;9.63;;;8.10;61.10;;;;;;6268134;28;20075;-74
2024/01/15 02:27:57;;;;;;;20.50;9.13;;;8.00;61.00;;;;;;6248290;28;20064;-73
2024/01/15 02:30:57;;;;;;;40.40;11.70;;;8.00;61.10;;;;;;6255963;28;20014;-74
2024/01/15 02:33:59;;;;;;;19.52;10.05;;;8.00;61.30;;;;;;6252146;28;20092;-74
2024/01/15 02:37:00;;;;;;;19.55;9.20;;;8.00;61.40;;;;;;6236733;28;20027;-75
2024/01/15 02:40:01;;;;;;;24.23;9.85;;;8.00;61.30;;;;;;6256684;28;20067;-73
2024/01/15 02:43:02;;;;;;;22.95;10.57;;;8.00;61.30;;;;;;6247734;28;20116;-75
2024/01/15 02:46:03;;;;;;;17.65;7.93;;;8.00;61.30;;;;;;6230910;28;20095;-74
2024/01/15 02:49:04;;;;;;;23.58;10.10;;;8.00;61.40;;;;;;6246397;28;20039;-74
2024/01/15 02:52:06;;;;;;;24.58;10.07;;;8.00;61.40;;;;;;6247190;28;20362;-74
2024/01/15 02:55:08;;;;;;;23.35;10.30;;;7.90;61.60;;;;;;6247774;28;20104;-72
2024/01/15 02:58:09;;;;;;;20.45;9.32;;;7.90;61.70;;;;;;6246025;28;20127;-74
2024/01/15 03:01:10;;;;;;;20.08;8.77;;;7.90;61.80;;;;;;6250346;28;20043;-74
2024/01/15 03:04:11;;;;;;;26.58;9.02;;;7.80;61.80;;;;;;6237828;28;20131;-75
2024/01/15 03:07:12;;;;;;;15.68;6.72;;;7.80;61.90;;;;;;6250179;28;20067;-74
2024/01/15 03:10:13;;;;;;;18.30;6.78;;;7.80;62.00;;;;;;6243246;28;20033;-75
2024/01/15 03:13:14;;;;;;;21.63;7.72;;;7.80;62.10;;;;;;6253794;28;20037;-73
2024/01/15 03:16:15;;;;;;;27.73;10.10;;;7.80;62.00;;;;;;6251270;28;20036;-74
2024/01/15 03:19:15;;;;;;;22.13;11.00;;;7.80;62.00;;;;;;6229798;28;20013;-72
2024/01/15 03:22:17;;;;;;;22.95;7.88;;;7.80;62.10;;;;;;6248978;28;20723;-75
2024/01/15 03:25:18;;;;;;;22.48;9.23;;;7.80;62.20;;;;;;6246492;28;20538;-74
2024/01/15 03:28:20;;;;;;;25.45;11.00;;;7.80;62.20;;;;;;6248702;28;20036;-73
2024/01/15 03:31:21;;;;;;;29.50;10.85;;;7.80;62.20;;;;;;6254085;28;20487;-75
2024/01/15 03:34:21;;;;;;;18.95;9.43;;;7.80;62.00;;;;;;6249013;28;20033;-74
2024/01/15 03:37:22;;;;;;;38.78;11.55;;;7.80;62.10;;;;;;6245082;28;20045;-73
2024/01/15 03:40:23;;;;;;;20.65;9.35;;;7.80;62.30;;;;;;6229912;28;20536;-74
2024/01/15 03:43:24;;;;;;;25.48;9.52;;;7.90;62.40;;;;;;6243342;28;20028;-73
2024/01/15 03:46:25;;;;;;;25.52;11.13;;;7.90;62.10;;;;;;6248050;28;20157;-74
2024/01/15 03:49:25;;;;;;;19.45;9.20;;;7.90;62.70;;;;;;6249879;28;20039;-74
2024/01/15 03:52:26;;;;;;;31.75;11.85;;;7.90;61.80;;;;;;6249374;28;20057;-75
2024/01/15 03:55:27;;;;;;;29.92;10.63;;;7.90;61.80;;;;;;6248923;28;20017;-73
2024/01/15 03:58:28;;;;;;;34.78;11.18;;;7.80;62.00;;;;;;6245390;28;20816;-75
2024/01/15 04:01:29;;;;;;;20.50;10.18;;;7.80;62.90;;;;;;6252769;28;20025;-74
2024/01/15 04:04:30;;;;;;;28.08;10.82;;;7.80;62.30;;;;;;6248098;28;20036;-75
2024/01/15 04:07:31;;;;;;;28.92;9.40;;;7.80;62.20;;;;;;6244831;28;20049;-74
2024/01/15 04:10:32;;;;;;;23.30;9.73;;;7.80;62.30;;;;;;6231055;28;20136;-74
2024/01/15 04:13:33;;;;;;;20.45;8.70;;;7.80;62.30;;;;;;6247691;28;20040;-74
2024/01/15 04:16:34;;;;;;;16.27;6.97;;;7.90;62.30;;;;;;6248647;28;20534;-74
2024/01/15 04:19:35;;;;;;;24.85;9.52;;;7.90;62.30;;;;;;6243753;28;20024;-74
2024/01/15 04:22:36;;;;;;;21.27;8.85;;;7.90;62.20;;;;;;6233373;28;20025;-73
2024/01/15 04:25:37;;;;;;;21.02;10.55;;;7.90;62.10;;;;;;6248266;28;20029;-73
2024/01/15 04:28:38;;;;;;;34.22;11.25;;;7.80;62.20;;;;;;6244776;28;20551;-73
2024/01/15 04:31:38;;;;;;;28.55;11.45;;;7.80;62.20;;;;;;6240752;28;20037;-74
2024/01/15 04:34:40;;;;;;;22.88;10.10;;;7.80;62.40;;;;;;6229895;28;20044;-74
2024/01/15 04:37:41;;;;;;;26.80;9.70;;;7.80;62.50;;;;;;6231967;28;20036;-73
2024/01/15 04:40:42;;;;;;;31.42;10.45;;;7.80;62.50;;;;;;6243662;28;20040;-74
2024/01/15 04:43:46;;;;;;;24.65;9.10;;;7.80;62.50;;;;;;6250116;28;20013;-73
2024/01/15 04:46:47;;;;;;;20.55;9.68;;;7.80;62.50;;;;;;6249295;28;20025;-72
2024/01/15 04:49:49;;;;;;;27.33;11.73;;;7.80;62.30;;;;;;6248384;28;20032;-73
2024/01/15 04:52:50;;;;;;;19.80;9.00;;;7.80;62.40;;;;;;6246165;28;20402;-74
2024/01/15 04:55:51;;;;;;;20.42;9.50;;;7.90;62.50;;;;;;6245257;28;20064;-73
2024/01/15 04:58:52;;;;;;;32.83;10.52;;;7.90;62.40;;;;;;6247163;28;20037;-72
2024/01/15 05:01:52;;;;;;;20.50;8.85;;;7.90;62.40;;;;;;6251067;28;20021;-73
2024/01/15 05:04:53;;;;;;;14.32;8.00;;;7.90;62.30;;;;;;6257238;28;20544;-72
2024/01/15 05:07:55;;;;;;;21.40;9.20;;;7.90;62.30;;;;;;6235805;28;20073;-73
2024/01/15 05:10:56;;;;;;;21.95;8.63;;;8.00;62.30;;;;;;6245571;28;20029;-74
2024/01/15 05:13:57;;;;;;;25.35;9.35;;;8.00;62.10;;;;;;6251538;28;20029;-73
2024/01/15 05:16:58;;;;;;;20.58;8.23;;;7.90;62.00;;;;;;6239417;28;20136;-74
2024/01/15 05:20:00;;;;;;;22.88;9.80;;;8.00;62.00;;;;;;6247751;28;20041;-73
2024/01/15 05:23:01;;;;;;;21.05;10.18;;;8.00;62.10;;;;;;6244654;28;20032;-74
2024/01/15 05:26:02;;;;;;;21.63;9.15;;;8.00;62.10;;;;;;6249565;28;20025;-73
2024/01/15 05:29:03;;;;;;;22.05;9.57;;;8.10;62.10;;;;;;6244848;28;20032;-74
2024/01/15 05:32:05;;;;;;;15.93;7.90;;;8.10;62.00;;;;;;6246213;28;20025;-72
2024/01/15 05:35:06;;;;;;;22.52;9.80;;;8.10;61.90;;;;;;6245053;28;20058;-73
2024/01/15 05:38:07;;;;;;;18.17;8.73;;;8.20;62.00;;;;;;6245395;28;20021;-73
2024/01/15 05:41:09;;;;;;;19.13;8.13;;;8.20;62.00;;;;;;6251546;28;20103;-74
2024/01/15 05:44:10;;;;;;;22.63;8.73;;;8.20;61.90;;;;;;6250697;28;20496;-74
2024/01/15 05:47:11;;;;;;;18.75;9.27;;;8.20;61.80;;;;;;6249378;28;20089;-74
2024/01/15 05:50:12;;;;;;;19.77;8.77;;;8.10;62.00;;;;;;6265360;28;20120;-74
2024/01/15 05:53:14;;;;;;;25.27;9.63;;;8.10;62.20;;;;;;6248091;28;20127;-74
2024/01/15 05:56:16;;;;;;;19.23;8.73;;;8.10;62.20;;;;;;6251115;28;20052;-74
2024/01/15 05:59:18;;;;;;;19.38;9.63;;;8.10;62.20;;;;;;6242356;28;20021;-73
2024/01/15 06:02:19;;;;;;;22.77;10.95;;;8.20;62.30;;;;;;6245767;28;20017;-74
2024/01/15 06:05:20;;;;;;;31.38;10.95;;;8.20;62.40;;;;;;6243962;28;20017;-73
2024/01/15 06:08:21;;;;;;;24.63;9.40;;;8.20;62.40;;;;;;6244366;28;20449;-73
2024/01/15 06:11:22;;;;;;;34.50;9.38;;;8.20;62.30;;;;;;6248376;28;20602;-75
2024/01/15 06:14:23;;;;;;;24.23;9.70;;;8.20;62.30;;;;;;6234876;28;20037;-73
2024/01/15 06:17:24;;;;;;;22.17;10.68;;;8.20;62.40;;;;;;6244395;28;20437;-75
2024/01/15 06:20:25;;;;;;;19.38;9.38;;;8.20;62.40;;;;;;6244987;28;20477;-74
2024/01/15 06:23:25;;;;;;;16.33;8.35;;;8.20;62.30;;;;;;6234488;28;20017;-73
2024/01/15 06:26:27;;;;;;;17.85;8.93;;;8.20;62.30;;;;;;6245160;28;20126;-74
2024/01/15 06:29:28;;;;;;;22.70;9.50;;;8.20;62.30;;;;;;6242268;28;20178;-73
2024/01/15 06:32:30;;;;;;;23.80;9.98;;;8.20;62.30;;;;;;6233297;28;20083;-73
2024/01/15 06:35:31;;;;;;;23.77;10.52;;;8.20;62.50;;;;;;6263160;28;20099;-72
2024/01/15 06:38:33;;;;;;;27.85;11.52;;;8.20;62.50;;;;;;6245968;28;20024;-72
2024/01/15 06:41:34;;;;;;;24.20;11.10;;;8.20;62.50;;;;;;6250807;28;20017;-75
2024/01/15 06:44:34;;;;;;;22.58;9.85;;;8.30;62.60;;;;;;6248932;28;20067;-70
2024/01/15 06:47:35;;;;;;;20.55;10.00;;;8.30;62.60;;;;;;6246825;28;20436;-71
2024/01/15 06:50:38;;;;;;;22.40;10.05;;;8.30;62.60;;;;;;6251533;28;20045;-71
2024/01/15 06:53:38;;;;;;;23.05;8.73;;;8.30;63.50;;;;;;6245648;28;20462;-76
2024/01/15 06:56:39;;;;;;;22.15;9.80;;;8.30;62.70;;;;;;6248408;28;20012;-72
2024/01/15 06:59:40;;;;;;;23.77;10.23;;;8.30;62.80;;;;;;6235056;28;20120;-72
2024/01/15 07:02:41;;;;;;;21.98;9.18;;;8.30;62.90;;;;;;6236019;28;20024;-71
2024/01/15 07:05:42;;;;;;;22.13;8.65;;;8.20;62.90;;;;;;6245410;28;20411;-71
2024/01/15 07:08:43;;;;;;;16.33;7.97;;;8.20;63.00;;;;;;6260808;28;20650;-73
2024/01/15 07:11:46;;;;;;;16.67;7.95;;;8.10;63.20;;;;;;6245583;28;20028;-73
2024/01/15 07:14:47;;;;;;;23.05;8.52;;;8.10;63.40;;;;;;6244830;28;20057;-72
2024/01/15 07:17:48;;;;;;;18.17;7.68;;;8.10;63.50;;;;;;6235424;28;20039;-73
2024/01/15 07:20:49;;;;;;;18.17;7.97;;;8.10;63.70;;;;;;6244503;28;20067;-72
2024/01/15 07:23:49;;;;;;;17.92;7.20;;;8.10;63.70;;;;;;6246124;28;20048;-72
2024/01/15 07:26:51;;;;;;;16.15;7.80;;;8.10;63.70;;;;;;6235634;28;20031;-73
2024/01/15 07:29:52;;;;;;;14.00;6.68;;;8.10;63.70;;;;;;6254327;28;20499;-73
2024/01/15 07:32:53;;;;;;;20.55;8.15;;;8.20;63.80;;;;;;6257319;28;20075;-73
2024/01/15 07:35:53;;;;;;;15.25;7.72;;;8.20;63.80;;;;;;6227345;28;20532;-71
2024/01/15 07:38:55;;;;;;;16.48;6.18;;;8.30;63.90;;;;;;6255301;28;20384;-74
2024/01/15 07:41:56;;;;;;;12.32;6.07;;;8.30;63.80;;;;;;6240829;28;20021;-72
2024/01/15 07:44:57;;;;;;;15.82;7.30;;;8.40;63.80;;;;;;6246636;28;20370;-72
2024/01/15 07:47:57;;;;;;;23.70;8.20;;;8.40;63.70;;;;;;6244915;28;20067;-72
2024/01/15 07:50:58;;;;;;;14.73;6.72;;;8.50;63.70;;;;;;6244286;28;20013;-72
2024/01/15 07:54:00;;;;;;;12.85;7.13;;;8.50;63.60;;;;;;6261261;28;20442;-72
2024/01/15 07:57:03;;;;;;;25.35;10.32;;;8.50;63.70;;;;;;6245525;28;20174;-72
2024/01/15 08:00:09;;;;;;;15.68;7.00;;;8.60;63.80;;;;;;6244595;28;20492;-73
2024/01/15 08:03:11;;;;;;;15.75;7.65;;;8.60;63.80;;;;;;6245308;28;20511;-73
2024/01/15 08:06:12;;;;;;;19.00;7.97;;;8.60;63.90;;;;;;6245599;28;20060;-72
2024/01/15 08:09:13;;;;;;;18.98;9.32;;;8.60;64.90;;;;;;6247428;28;20037;-72
2024/01/15 08:12:14;;;;;;;19.58;8.43;;;8.50;64.00;;;;;;6248021;28;20544;-74
2024/01/15 08:15:15;;;;;;;21.50;9.95;;;8.50;63.80;;;;;;6226225;28;20037;-72
2024/01/15 08:18:16;;;;;;;22.95;9.23;;;8.50;63.80;;;;;;6247216;28;20029;-72
2024/01/15 08:21:16;;;;;;;24.58;10.50;;;8.40;64.00;;;;;;6242824;28;20482;-72
2024/01/15 08:24:18;;;;;;;19.27;9.07;;;8.30;64.00;;;;;;6249092;28;20029;-73
2024/01/15 08:27:19;;;;;;;19.02;7.63;;;8.30;64.30;;;;;;6237463;28;20501;-73
2024/01/15 08:30:21;;;;;;;12.82;7.40;;;8.30;64.50;;;;;;6261778;28;20382;-72
2024/01/15 08:33:21;;;;;;;30.73;10.38;;;8.30;64.70;;;;;;6240169;28;20084;-71
2024/01/15 08:36:24;;;;;;;23.92;9.15;;;8.30;64.80;;;;;;6242828;28;20108;-71
2024/01/15 08:39:25;;;;;;;20.80;9.00;;;8.20;64.90;;;;;;6245661;28;20095;-75
2024/01/15 08:42:25;;;;;;;21.60;9.05;;;8.20;65.10;;;;;;6244979;28;20387;-74
2024/01/15 08:45:26;;;;;;;18.27;8.27;;;8.20;65.10;;;;;;6242614;28;20083;-72
2024/01/15 08:48:27;;;;;;;18.17;9.20;;;8.30;65.20;;;;;;6226074;28;20068;-74
2024/01/15 08:51:28;;;;;;;21.02;10.02;;;8.30;65.20;;;;;;6244933;28;20449;-70
2024/01/15 08:54:29;;;;;;;23.60;8.85;;;8.30;65.20;;;;;;6225848;28;20028;-73
2024/01/15 08:57:30;;;;;;;19.23;8.60;;;8.30;65.40;;;;;;6242178;28;20104;-73
2024/01/15 09:00:30;;;;;;;33.20;10.73;;;8.30;65.20;;;;;;6248581;28;20053;-72
2024/01/15 09:03:33;;;;;;;22.60;9.88;;;8.30;65.30;;;;;;6242492;28;20205;-71
2024/01/15 09:06:34;;;;;;;20.52;10.18;;;8.40;65.40;;;;;;6254017;28;20021;-72
2024/01/15 09:09:35;;;;;;;30.92;10.93;;;8.40;65.40;;;;;;6238438;28;20108;-71
2024/01/15 09:12:36;;;;;;;21.92;11.60;;;8.50;65.30;;;;;;6248487;28;20043;-73
2024/01/15 09:15:37;;;;;;;23.75;9.20;;;8.60;65.10;;;;;;6223335;28;20048;-71
2024/01/15 09:18:38;;;;;;;24.38;10.40;;;8.60;64.90;;;;;;6240240;28;20027;-72
2024/01/15 09:21:39;;;;;;;26.48;11.10;;;8.70;65.00;;;;;;6244246;28;20028;-71
2024/01/15 09:24:41;;;;;;;24.35;9.05;;;8.60;64.90;;;;;;6240672;28;20024;-72
2024/01/15 09:27:42;;;;;;;30.90;10.02;;;8.70;65.00;;;;;;6238565;28;20017;-72
2024/01/15 09:30:44;;;;;;;23.90;9.82;;;8.70;64.90;;;;;;6228131;28;20056;-72
2024/01/15 09:33:45;;;;;;;23.75;9.88;;;8.90;65.00;;;;;;6224404;28;20041;-71
2024/01/15 09:36:48;;;;;;;22.85;9.95;;;8.80;64.80;;;;;;6245038;28;20322;-74
2024/01/15 09:39:49;;;;;;;27.63;9.93;;;8.80;64.70;;;;;;6257572;28;20041;-71
2024/01/15 09:42:51;;;;;;;18.10;9.00;;;8.90;64.80;;;;;;6256286;28;20025;-72
2024/01/15 09:45:54;;;;;;;30.13;11.68;;;8.90;64.80;;;;;;6241966;28;20034;-73
2024/01/15 09:48:55;;;;;;;19.00;8.63;;;9.00;64.60;;;;;;6240324;28;20037;-74
2024/01/15 09:51:58;;;;;;;23.20;10.38;;;9.10;64.60;;;;;;6243291;28;20025;-73
2024/01/15 09:55:01;;;;;;;29.67;11.40;;;9.10;64.50;;;;;;6247007;28;20131;-73
2024/01/15 09:58:02;;;;;;;28.10;11.05;;;9.20;64.60;;;;;;6240701;28;20017;-71
2024/01/15 10:01:04;;;;;;;26.70;13.48;;;9.20;64.30;;;;;;6237653;28;20104;-73
2024/01/15 10:04:05;;;;;;;26.25;12.15;;;9.30;64.20;;;;;;6239744;28;20036;-72
2024/01/15 10:07:08;;;;;;;31.95;11.90;;;9.30;64.10;;;;;;6243852;28;20028;-75
2024/01/15 10:10:11;;;;;;;31.20;12.70;;;9.30;64.00;;;;;;6230784;28;20115;-72
2024/01/15 10:13:14;;;;;;;21.50;8.95;;;9.30;64.00;;;;;;6247637;28;20439;-73
2024/01/15 10:16:15;;;;;;;22.33;10.90;;;9.30;63.80;;;;;;6277257;28;20025;-71
2024/01/15 10:19:16;;;;;;;19.42;9.93;;;9.40;64.00;;;;;;6244689;28;20126;-72
2024/01/15 10:22:21;;;;;;;18.55;8.70;;;9.40;63.90;;;;;;6245599;28;20571;-71
2024/01/15 10:25:25;;;;;;;21.63;9.38;;;9.40;64.00;;;;;;6247696;28;20040;-72
2024/01/15 10:28:27;;;;;;;26.08;10.88;;;9.50;63.90;;;;;;6249188;28;20137;-72
2024/01/15 10:31:28;;;;;;;23.17;9.38;;;9.50;63.90;;;;;;6235927;28;20017;-71
2024/01/15 10:34:30;;;;;;;21.92;8.48;;;9.60;63.80;;;;;;6232490;28;20079;-73
2024/01/15 10:37:34;;;;;;;21.60;10.27;;;9.60;63.80;;;;;;6253821;28;20021;-72
2024/01/15 10:40:35;;;;;;;27.88;9.35;;;9.60;63.60;;;;;;6245974;28;20417;-73
2024/01/15 10:43:40;;;;;;;20.23;9.32;;;9.60;63.60;;;;;;6240923;28;20021;-72
2024/01/15 10:46:45;;;;;;;23.83;9.88;;;9.60;63.60;;;;;;6248382;28;20025;-72
2024/01/15 10:49:46;;;;;;;22.08;9.10;;;9.60;63.70;;;;;;6242272;28;20036;-72
2024/01/15 10:52:47;;;;;;;35.92;12.00;;;9.60;63.70;;;;;;6245541;28;20140;-71
2024/01/15 10:55:51;;;;;;;20.17;9.68;;;9.70;63.80;;;;;;6235991;28;20426;-72
2024/01/15 10:58:54;;;;;;;33.90;10.18;;;9.80;63.80;;;;;;6246972;28;20037;-71
2024/01/15 11:01:55;;;;;;;27.70;12.88;;;9.80;63.60;;;;;;6248578;28;20045;-71
2024/01/15 11:04:56;;;;;;;27.48;10.57;;;9.90;63.50;;;;;;6246620;28;20074;-72
2024/01/15 11:08:00;;;;;;;25.20;10.90;;;9.80;63.60;;;;;;6243395;28;20409;-72
2024/01/15 11:11:01;;;;;;;26.77;11.75;;;9.80;63.70;;;;;;6246767;28;20087;-74
2024/01/15 11:14:03;;;;;;;28.77;12.52;;;9.90;64.00;;;;;;6232183;28;20480;-73
2024/01/15 11:17:05;;;;;;;32.53;12.13;;;10.00;64.00;;;;;;6249444;28;20409;-73
2024/01/15 11:20:06;;;;;;;35.45;13.85;;;10.20;63.90;;;;;;6243871;28;20048;-73
2024/01/15 11:23:08;;;;;;;39.25;15.65;;;10.30;63.60;;;;;;6250967;28;20032;-72
2024/01/15 11:26:40;;;;;;;26.20;12.68;;;10.30;63.30;;;;;;6250319;28;20029;-73
2024/01/15 11:29:41;;;;;;;25.08;12.27;;;10.30;63.40;;;;;;6243129;28;20477;-73
2024/01/15 11:32:42;;;;;;;27.35;10.88;;;10.40;63.40;;;;;;6230888;28;20029;-74
2024/01/15 11:35:50;;;;;;;25.42;12.00;;;10.30;63.40;;;;;;6244979;28;20036;-72
2024/01/15 11:38:51;;;;;;;35.63;13.07;;;10.20;63.40;;;;;;6246504;28;20051;-71
2024/01/15 11:41:54;;;;;;;27.85;10.55;;;10.20;63.60;;;;;;6246852;28;20430;-74
2024/01/15 11:44:55;;;;;;;24.52;9.90;;;10.20;63.60;;;;;;6229214;28;20036;-72
2024/01/15 11:48:02;;;;;;;21.17;9.35;;;10.20;63.60;;;;;;6264451;28;20073;-74
2024/01/15 11:51:04;;;;;;;24.58;10.65;;;10.20;63.60;;;;;;6242827;28;20028;-74
2024/01/15 11:54:09;;;;;;;36.28;11.98;;;10.10;63.70;;;;;;6225965;28;20037;-73
2024/01/15 11:57:21;;;;;;;22.98;10.27;;;10.10;63.90;;;;;;6245895;28;20021;-74
2024/01/15 12:00:25;;;;;;;22.15;10.70;;;10.00;64.20;;;;;;6247497;28;20020;-73
2024/01/15 12:03:26;;;;;;;23.67;9.00;;;10.10;64.30;;;;;;6244348;28;20291;-71
2024/01/15 12:06:27;;;;;;;17.30;9.05;;;10.00;64.30;;;;;;6243349;28;20017;-75
2024/01/15 12:09:29;;;;;;;27.65;9.35;;;10.10;64.30;;;;;;6245827;28;20072;-73
2024/01/15 12:12:39;;;;;;;23.33;10.07;;;10.00;64.50;;;;;;6252135;28;20067;-73
2024/01/15 12:15:43;;;;;;;17.98;9.60;;;10.00;64.70;;;;;;6226679;28;20162;-73
2024/01/15 12:18:43;;;;;;;22.35;7.93;;;9.90;64.70;;;;;;6247830;28;20112;-73
2024/01/15 12:21:45;;;;;;;17.58;7.55;;;10.00;64.90;;;;;;6245259;28;20162;-73
2024/01/15 12:24:45;;;;;;;19.30;9.35;;;10.00;64.90;;;;;;6249505;28;20076;-72
2024/01/15 12:27:47;;;;;;;25.02;9.98;;;10.10;64.90;;;;;;6236785;28;20173;-72
2024/01/15 12:30:49;;;;;;;21.05;9.38;;;10.10;65.00;;;;;;6245926;28;20029;-73
2024/01/15 12:33:51;;;;;;;22.48;10.93;;;10.10;64.90;;;;;;6245113;28;20120;-73
2024/01/15 12:36:52;;;;;;;17.85;9.00;;;10.10;64.80;;;;;;6244458;28;20028;-74
2024/01/15 12:39:54;;;;;;;21.42;9.30;;;10.10;64.80;;;;;;6243307;28;20451;-74
2024/01/15 12:42:56;;;;;;;23.98;9.80;;;10.10;64.80;;;;;;6247243;28;20493;-72
2024/01/15 12:45:57;;;;;;;20.25;9.45;;;10.10;65.00;;;;;;6242824;28;20445;-72
2024/01/15 12:53:22;;;;;;;21.38;8.80;;;10.10;65.20;;;;;;6244218;28;20045;-72
2024/01/15 12:56:22;;;;;;;26.23;10.15;;;10.10;65.10;;;;;;6244808;28;20102;-71
2024/01/15 12:59:23;;;;;;;18.35;9.13;;;10.10;65.20;;;;;;6242645;28;20075;-72
2024/01/15 13:02:25;;;;;;;21.00;9.88;;;10.10;65.30;;;;;;6252031;28;20033;-74
2024/01/15 13:05:27;;;;;;;21.77;10.13;;;10.10;65.40;;;;;;6260269;28;20029;-72
2024/01/15 13:08:29;;;;;;;28.13;10.23;;;10.00;65.60;;;;;;6242592;28;20020;-74
2024/01/15 13:11:30;;;;;;;25.02;10.00;;;10.00;66.00;;;;;;6242213;28;20172;-73
2024/01/15 13:14:31;;;;;;;27.05;10.00;;;10.00;66.10;;;;;;6228926;28;20033;-72
2024/01/15 13:17:33;;;;;;;32.72;10.95;;;10.10;66.00;;;;;;6270529;28;20077;-72
2024/01/15 13:20:36;;;;;;;23.05;9.75;;;10.10;65.90;;;;;;6241687;28;20021;-71
2024/01/15 13:23:37;;;;;;;20.02;9.18;;;10.00;66.00;;;;;;6277803;28;20062;-74
2024/01/15 13:26:38;;;;;;;15.90;7.60;;;10.00;66.00;;;;;;6245098;28;20017;-73
2024/01/15 13:29:39;;;;;;;18.27;8.77;;;10.00;66.20;;;;;;6239491;28;20043;-72
2024/01/15 13:32:39;;;;;;;23.98;8.73;;;10.00;66.20;;;;;;6261431;28;20033;-74
2024/01/15 13:35:41;;;;;;;29.40;9.95;;;9.90;66.30;;;;;;6245071;28;20065;-72
2024/01/15 13:38:42;;;;;;;21.70;11.02;;;10.00;66.50;;;;;;6242740;28;20018;-72
2024/01/15 13:41:44;;;;;;;26.42;8.68;;;10.00;66.50;;;;;;6232582;28;20432;-72
2024/01/15 13:44:44;;;;;;;14.77;8.10;;;10.00;66.60;;;;;;6238410;28;20037;-72
2024/01/15 13:47:45;;;;;;;19.75;7.22;;;10.10;66.40;;;;;;6243701;28;20036;-73
2024/01/15 13:50:46;;;;;;;21.58;7.72;;;10.10;66.40;;;;;;6242959;28;20075;-72
2024/01/15 13:53:47;;;;;;;14.70;7.60;;;10.10;66.50;;;;;;6244636;28;20034;-73
2024/01/15 13:56:50;;;;;;;16.38;8.95;;;10.00;66.40;;;;;;6280120;28;20028;-72
2024/01/15 13:59:50;;;;;;;16.63;8.05;;;10.00;66.50;;;;;;6246036;28;20028;-72
2024/01/15 14:02:51;;;;;;;22.02;8.55;;;10.00;66.60;;;;;;6248115;28;20378;-72
2024/01/15 14:05:52;;;;;;;20.30;8.68;;;10.00;67.50;;;;;;6246877;28;20033;-72
2024/01/15 14:08:53;;;;;;;15.93;6.75;;;10.00;66.80;;;;;;6250255;28;20325;-73
2024/01/15 14:11:54;;;;;;;15.35;7.20;;;10.00;67.00;;;;;;6246770;28;20064;-73
2024/01/15 14:14:56;;;;;;;11.57;6.47;;;10.00;67.10;;;;;;6249000;28;20481;-74
2024/01/15 14:17:58;;;;;;;15.93;7.22;;;9.90;67.10;;;;;;6242522;28;20037;-72
2024/01/15 14:20:59;;;;;;;14.00;7.15;;;10.00;67.30;;;;;;6250985;28;20030;-73
2024/01/15 14:23:59;;;;;;;14.65;7.65;;;9.90;67.40;;;;;;6246665;28;20036;-73
2024/01/15 14:27:00;;;;;;;23.38;8.07;;;10.00;67.50;;;;;;6243900;28;20056;-73
2024/01/15 14:30:02;;;;;;;16.63;8.35;;;10.00;67.40;;;;;;6248608;28;20067;-72
2024/01/15 14:33:05;;;;;;;14.55;6.57;;;10.10;67.30;;;;;;6279027;28;20048;-71
2024/01/15 14:36:06;;;;;;;16.27;7.53;;;10.10;67.20;;;;;;6249736;28;20053;-71
2024/01/15 14:39:06;;;;;;;21.88;8.25;;;10.10;67.20;;;;;;6245148;28;20127;-74
2024/01/15 14:42:08;;;;;;;17.77;8.07;;;10.10;67.20;;;;;;6245304;28;20039;-72
2024/01/15 14:45:11;;;;;;;15.52;7.15;;;10.10;67.30;;;;;;6249084;28;20021;-73
2024/01/15 14:48:13;;;;;;;20.00;7.07;;;10.10;67.30;;;;;;6246368;28;20027;-72
2024/01/15 14:51:14;;;;;;;19.27;7.28;;;10.10;67.20;;;;;;6247252;28;20546;-72
2024/01/15 14:54:15;;;;;;;15.88;7.10;;;10.10;67.20;;;;;;6251000;28;20025;-73
2024/01/15 14:57:16;;;;;;;18.58;9.27;;;10.10;67.00;;;;;;6244312;28;20109;-72
2024/01/15 15:00:18;;;;;;;15.48;7.25;;;10.10;66.90;;;;;;6249249;28;20033;-73
2024/01/15 15:03:19;;;;;;;12.13;6.85;;;10.00;67.00;;;;;;6244615;28;20084;-73
2024/01/15 15:06:21;;;;;;;11.40;5.75;;;10.00;67.50;;;;;;6225816;28;20021;-74
2024/01/15 15:09:21;;;;;;;13.95;6.50;;;10.00;67.30;;;;;;6248603;28;20081;-73
2024/01/15 15:12:23;;;;;;;20.08;6.85;;;9.90;67.30;;;;;;6242346;28;20422;-74
2024/01/15 15:15:25;;;;;;;17.17;7.50;;;9.90;67.40;;;;;;6251022;28;20053;-73
2024/01/15 15:18:27;;;;;;;15.20;7.05;;;9.80;67.50;;;;;;6278440;28;20021;-71
2024/01/15 15:21:29;;;;;;;16.50;6.78;;;9.80;67.60;;;;;;6244442;28;20437;-73
2024/01/15 15:24:30;;;;;;;13.85;6.22;;;9.80;67.60;;;;;;6254102;28;20097;-72
2024/01/15 15:27:31;;;;;;;13.18;6.72;;;9.70;67.70;;;;;;6230815;28;20037;-73
2024/01/15 15:30:31;;;;;;;12.13;6.53;;;9.70;67.70;;;;;;6259329;28;20036;-72
2024/01/15 15:33:32;;;;;;;13.40;6.07;;;9.70;67.80;;;;;;6251605;28;20035;-72
2024/01/15 15:36:33;;;;;;;11.82;6.82;;;9.80;67.90;;;;;;6259860;28;20394;-72
2024/01/15 15:39:34;;;;;;;16.23;5.63;;;9.80;67.80;;;;;;6246478;28;20017;-73
2024/01/15 15:42:35;;;;;;;11.48;6.07;;;9.90;67.80;;;;;;6241951;28;20022;-72